Time;durP1;ratioP1;P1;durP2;ratioP2;P2;SDS_P1;SDS_P2;PMS_P1;PMS_P2;Temp;Humidity;BMP_temperature;BMP_pressure;BME280_temperature;BME280_humidity;BME280_pressure;Samples;Min_cycle;Max_cycle;Signal;HPM_P1;HPM_P2
2022/11/08 00:03:30;;;;;;;27.65;16.95;;;;;;;17.08;70.45;100382.69;4945189;28;120312;-74
2022/11/08 00:14:12;;;;;;;36.78;19.75;;;;;;;17.05;70.51;100372.59;4944528;28;122669;-73
2022/11/08 00:16:38;;;;;;;29.38;19.20;;;;;;;17.09;70.38;100384.19;4941539;28;120651;-73
2022/11/08 00:19:33;;;;;;;38.80;20.85;;;;;;;17.07;70.32;100389.47;4928259;28;120212;-75
2022/11/08 00:21:58;;;;;;;33.33;20.97;;;;;;;17.06;70.26;100385.19;4924906;28;120677;-74
2022/11/08 00:24:24;;;;;;;37.13;21.17;;;;;;;17.07;70.28;100386.72;4941825;28;120073;-73
2022/11/08 00:26:50;;;;;;;42.90;21.20;;;;;;;17.07;70.27;100386.72;4941106;28;120593;-74
2022/11/08 00:29:16;;;;;;;35.47;20.90;;;;;;;17.10;70.40;100388.47;4940755;28;119882;-74
2022/11/08 00:31:43;;;;;;;42.00;21.45;;;;;;;17.12;70.08;100394.25;4942218;28;119995;-73
2022/11/08 00:34:11;;;;;;;37.72;21.25;;;;;;;17.15;70.15;100396.03;4938879;28;120108;-74
2022/11/08 00:36:37;;;;;;;43.45;21.15;;;;;;;17.18;70.01;100394.25;4946693;28;119819;-75
2022/11/08 00:39:02;;;;;;;40.47;21.13;;;;;;;17.16;70.12;100385.69;4940460;28;122704;-74
2022/11/08 00:41:28;;;;;;;40.38;21.50;;;;;;;17.19;70.09;100384.69;4942244;28;120012;-74
2022/11/08 00:43:54;;;;;;;41.05;20.42;;;;;;;17.19;69.92;100393.75;4941882;28;120176;-74
2022/11/08 00:46:19;;;;;;;43.65;20.92;;;;;;;17.18;69.46;100389.47;4940401;28;120359;-74
2022/11/08 00:48:45;;;;;;;38.58;19.70;;;;;;;17.19;69.80;100395.78;4942886;28;120724;-74
2022/11/08 00:51:11;;;;;;;42.13;19.40;;;;;;;17.18;69.82;100395.03;4942361;28;119938;-74
2022/11/08 00:53:38;;;;;;;38.35;18.98;;;;;;;17.19;69.68;100393.00;4942006;28;120241;-73
2022/11/08 00:56:06;;;;;;;43.05;19.88;;;;;;;17.21;69.85;100398.03;4940501;28;121228;-75
2022/11/08 00:58:33;;;;;;;40.50;18.08;;;;;;;17.22;69.82;100397.53;4944986;28;119744;-74
2022/11/08 01:00:58;;;;;;;40.90;17.55;;;;;;;17.23;69.82;100395.53;4942871;28;120216;-74
2022/11/08 01:03:25;;;;;;;41.38;17.75;;;;;;;17.24;69.83;100397.78;4942545;28;120367;-74
2022/11/08 01:05:53;;;;;;;41.15;17.25;;;;;;;17.25;69.61;100393.00;4941759;28;120451;-74
2022/11/08 01:08:21;;;;;;;40.67;16.50;;;;;;;17.18;69.55;100389.47;4942670;28;120156;-73
2022/11/08 01:10:49;;;;;;;37.65;15.75;;;;;;;17.23;69.79;100401.81;4940530;28;120376;-73
2022/11/08 01:13:16;;;;;;;39.33;15.43;;;;;;;17.26;69.68;100400.81;4940480;28;120722;-74
2022/11/08 01:15:43;;;;;;;39.60;16.00;;;;;;;17.26;69.75;100397.28;4942307;28;120261;-74
2022/11/08 01:18:11;;;;;;;35.33;14.63;;;;;;;17.26;69.86;100403.59;4940775;28;119962;-74
2022/11/08 01:20:38;;;;;;;39.22;15.00;;;;;;;17.24;69.44;100394.25;4946547;28;119949;-74
2022/11/08 01:23:05;;;;;;;33.70;14.02;;;;;;;17.23;69.71;100396.28;4940696;28;119702;-74
2022/11/08 01:25:43;;;;;;;35.78;14.25;;;;;;;17.25;69.73;100395.78;4923708;28;120554;-74
2022/11/08 01:28:09;;;;;;;38.97;14.43;;;;;;;17.20;69.55;100394.50;4941870;28;120118;-74
2022/11/08 01:30:46;;;;;;;38.50;13.88;;;;;;;17.23;69.48;100387.22;4940328;28;119938;-74
2022/11/08 01:33:13;;;;;;;35.30;12.88;;;;;;;17.25;69.35;100395.78;4940446;28;120385;-74
2022/11/08 01:35:44;;;;;;;36.47;13.23;;;;;;;17.25;69.46;100388.22;4939050;28;119710;-74
2022/11/08 01:38:09;;;;;;;33.58;12.68;;;;;;;17.23;69.51;100392.75;4941817;28;119921;-74
2022/11/08 01:40:48;;;;;;;39.28;13.30;;;;;;;17.26;69.37;100394.50;4942957;28;120402;-74
2022/11/08 01:43:29;;;;;;;30.80;11.60;;;;;;;17.26;69.52;100383.44;4949448;28;119842;-74
2022/11/08 01:46:17;;;;;;;29.27;10.90;;;;;;;17.26;69.20;100400.06;4943987;28;119883;-74
2022/11/08 01:48:53;;;;;;;30.42;10.55;;;;;;;17.23;69.52;100387.22;4944138;28;119470;-74
2022/11/08 01:51:25;;;;;;;33.38;10.48;;;;;;;17.22;69.33;100394.75;4926119;28;119941;-74
2022/11/08 01:53:51;;;;;;;28.63;10.05;;;;;;;17.21;69.36;100384.19;4945169;28;120473;-74
2022/11/08 01:56:18;;;;;;;29.55;9.95;;;;;;;17.23;69.15;100396.28;4943708;28;120130;-74
2022/11/08 01:58:46;;;;;;;25.33;9.20;;;;;;;17.21;69.22;100386.97;4943502;28;119845;-74
2022/11/08 02:01:32;;;;;;;29.20;9.63;;;;;;;17.23;69.16;100379.66;4930072;28;119630;-74
2022/11/08 02:03:59;;;;;;;29.57;8.90;;;;;;;17.22;69.10;100388.47;4948138;28;119630;-73
2022/11/08 02:06:25;;;;;;;28.20;8.75;;;;;;;17.22;69.13;100386.44;4926231;28;121983;-74
2022/11/08 02:08:51;;;;;;;25.13;8.80;;;;;;;17.21;69.27;100381.41;4942527;28;119563;-74
2022/11/08 02:11:17;;;;;;;27.52;8.65;;;;;;;17.24;68.95;100386.69;4943673;28;120371;-74
2022/11/08 02:13:45;;;;;;;27.55;8.25;;;;;;;17.23;69.05;100387.22;4912472;28;120576;-73
2022/11/08 02:16:14;;;;;;;25.52;8.00;;;;;;;17.23;68.94;100376.13;4943541;28;119379;-73
2022/11/08 02:18:42;;;;;;;29.13;8.57;;;;;;;17.23;69.19;100378.91;4943378;28;119991;-73
2022/11/08 02:21:21;;;;;;;32.45;8.50;;;;;;;17.23;68.84;100367.81;4945522;28;120418;-75
2022/11/08 02:23:52;;;;;;;29.83;8.40;;;;;;;17.24;68.98;100383.19;4945246;28;120034;-74
2022/11/08 02:26:23;;;;;;;27.08;7.75;;;;;;;17.25;68.88;100381.91;4948297;28;119920;-74
2022/11/08 02:28:49;;;;;;;25.43;7.97;;;;;;;17.23;68.62;100381.66;4945225;28;120421;-73
2022/11/08 02:31:17;;;;;;;25.20;7.75;;;;;;;17.24;68.93;100380.41;4942160;28;119771;-74
2022/11/08 02:33:44;;;;;;;25.88;7.72;;;;;;;17.25;68.62;100381.91;4943604;28;119557;-74
2022/11/08 02:36:14;;;;;;;22.88;7.35;;;;;;;17.23;68.82;100387.97;4926104;28;120120;-74
2022/11/08 02:38:44;;;;;;;26.95;7.43;;;;;;;17.20;68.69;100377.88;4943506;28;119902;-74
2022/11/08 02:41:10;;;;;;;25.42;7.38;;;;;;;17.21;68.73;100375.88;4942743;28;119953;-74
2022/11/08 02:43:36;;;;;;;23.10;7.00;;;;;;;17.21;68.71;100381.41;4943918;28;120447;-74
2022/11/08 02:46:02;;;;;;;24.52;7.18;;;;;;;17.22;68.86;100380.16;4944204;28;120272;-75
2022/11/08 02:48:28;;;;;;;23.60;7.10;;;;;;;17.21;68.77;100370.31;4947298;28;120608;-73
2022/11/08 02:50:54;;;;;;;21.47;7.10;;;;;;;17.23;68.54;100373.34;4943790;28;120017;-75
2022/11/08 02:53:19;;;;;;;23.80;7.30;;;;;;;17.22;68.58;100374.59;4943663;28;120681;-73
2022/11/08 02:55:45;;;;;;;22.73;7.05;;;;;;;17.25;68.28;100381.91;4942581;28;119890;-74
2022/11/08 02:58:11;;;;;;;21.65;6.65;;;;;;;17.24;68.29;100372.09;4943541;28;119887;-73
2022/11/08 03:00:37;;;;;;;21.33;6.43;;;;;;;17.19;68.38;100379.91;4943748;28;120703;-74
2022/11/08 03:03:03;;;;;;;21.60;6.43;;;;;;;17.21;68.51;100382.16;4943063;28;120422;-74
2022/11/08 03:05:30;;;;;;;23.33;6.65;;;;;;;17.21;68.40;100375.88;4942768;28;119998;-74
2022/11/08 03:07:56;;;;;;;21.42;6.38;;;;;;;17.20;68.41;100380.66;4942645;28;121226;-73
2022/11/08 03:10:33;;;;;;;20.90;6.22;;;;;;;17.17;68.44;100378.91;4930714;28;120421;-73
2022/11/08 03:13:01;;;;;;;26.88;6.85;;;;;;;17.15;68.21;100379.41;4943078;28;120016;-73
2022/11/08 03:15:28;;;;;;;22.20;6.40;;;;;;;17.13;68.46;100381.91;4943328;28;119902;-73
2022/11/08 03:17:57;;;;;;;21.98;6.45;;;;;;;17.11;68.02;100376.13;4944708;28;119906;-74
2022/11/08 03:20:23;;;;;;;22.17;6.20;;;;;;;17.09;68.29;100388.97;4945078;28;120297;-74
2022/11/08 03:22:56;;;;;;;23.23;6.00;;;;;;;17.07;68.26;100380.41;4945384;28;120480;-74
2022/11/08 03:25:21;;;;;;;21.10;5.88;;;;;;;17.04;67.99;100373.09;4944346;28;119800;-74
2022/11/08 03:27:47;;;;;;;22.63;5.95;;;;;;;17.03;67.95;100377.88;4943555;28;119853;-74
2022/11/08 03:30:13;;;;;;;22.10;6.35;;;;;;;17.01;68.20;100376.84;4944175;28;119799;-75
2022/11/08 03:32:38;;;;;;;19.35;5.95;;;;;;;16.97;68.22;100373.59;4947361;28;119916;-73
2022/11/08 03:35:14;;;;;;;22.13;6.25;;;;;;;16.95;68.44;100376.84;4941762;28;119940;-74
2022/11/08 03:37:39;;;;;;;21.40;5.85;;;;;;;16.96;68.24;100378.38;4943973;28;119768;-74
2022/11/08 03:40:06;;;;;;;21.25;6.00;;;;;;;16.92;68.35;100377.88;4942656;28;122856;-73
2022/11/08 03:42:32;;;;;;;23.98;6.18;;;;;;;16.97;68.13;100376.34;4942522;28;120276;-74
2022/11/08 03:45:03;;;;;;;20.83;5.97;;;;;;;16.97;68.38;100374.34;4932241;28;119677;-74
2022/11/08 03:47:29;;;;;;;19.17;5.57;;;;;;;16.99;68.11;100371.81;4939829;28;120054;-74
2022/11/08 03:49:55;;;;;;;18.27;5.80;;;;;;;17.01;67.89;100369.31;4941799;28;120410;-74
2022/11/08 03:52:20;;;;;;;19.83;5.90;;;;;;;17.01;68.09;100372.06;4942715;28;120111;-74
2022/11/08 03:54:46;;;;;;;19.00;5.40;;;;;;;16.99;67.96;100366.28;4940224;28;121158;-73
2022/11/08 03:57:11;;;;;;;19.67;5.30;;;;;;;17.00;68.18;100362.25;4944279;28;119669;-74
2022/11/08 03:59:37;;;;;;;20.77;5.50;;;;;;;17.02;68.04;100370.06;4943705;28;120641;-74
2022/11/08 04:02:03;;;;;;;20.67;5.23;;;;;;;16.96;67.86;100350.66;4943694;28;119983;-75
2022/11/08 04:04:29;;;;;;;20.67;5.65;;;;;;;17.05;67.50;100361.53;4920408;28;119860;-74
2022/11/08 04:06:55;;;;;;;19.40;5.40;;;;;;;17.04;67.77;100373.09;4943992;28;120261;-74
2022/11/08 04:09:21;;;;;;;21.30;5.75;;;;;;;17.03;67.87;100371.56;4943385;28;119875;-74
2022/11/08 04:17:14;;;;;;;21.63;5.70;;;;;;;17.04;67.80;100368.31;4944943;28;120109;-73
2022/11/08 04:22:30;;;;;;;18.88;5.68;;;;;;;17.05;67.82;100371.84;4939920;28;119982;-74
2022/11/08 04:24:56;;;;;;;20.13;5.82;;;;;;;17.06;67.76;100365.81;4945573;28;120024;-74
2022/11/08 04:27:21;;;;;;;19.67;5.68;;;;;;;17.08;67.69;100362.53;4924004;28;120199;-74
2022/11/08 04:29:47;;;;;;;21.92;5.80;;;;;;;17.04;67.67;100362.78;4943853;28;120374;-74
2022/11/08 04:32:31;;;;;;;23.80;6.13;;;;;;;17.05;67.75;100361.53;4942607;28;120117;-74
2022/11/08 04:35:11;;;;;;;18.10;5.60;;;;;;;17.03;67.83;100364.00;4943987;28;120236;-74
2022/11/08 04:37:36;;;;;;;21.03;5.57;;;;;;;17.03;67.70;100361.25;4948269;28;119989;-73
2022/11/08 04:40:02;;;;;;;18.97;5.60;;;;;;;17.03;67.71;100361.25;4942023;28;121785;-73
2022/11/08 04:42:29;;;;;;;21.00;5.57;;;;;;;17.03;67.79;100360.47;4944385;28;120131;-74
2022/11/08 04:44:54;;;;;;;19.03;5.43;;;;;;;17.05;67.67;100358.00;4943097;28;119647;-74
2022/11/08 04:47:47;;;;;;;22.67;5.70;;;;;;;17.04;67.96;100356.47;4930951;28;119999;-74
2022/11/08 04:50:33;;;;;;;19.48;5.57;;;;;;;17.06;67.49;100353.97;4904327;28;121020;-74
2022/11/08 04:52:58;;;;;;;19.98;5.60;;;;;;;17.03;67.66;100352.16;4918692;28;119944;-73
2022/11/08 04:55:24;;;;;;;19.60;5.83;;;;;;;17.05;67.55;100363.53;4920677;28;120209;-74
2022/11/08 04:57:50;;;;;;;19.77;5.50;;;;;;;17.03;67.56;100364.00;4919873;28;119651;-74
2022/11/08 05:00:16;;;;;;;18.93;5.40;;;;;;;17.03;67.57;100350.16;4925233;28;120748;-73
2022/11/08 05:02:42;;;;;;;21.23;5.35;;;;;;;16.99;67.26;100354.44;4920374;28;120198;-74
2022/11/08 05:05:08;;;;;;;21.23;5.90;;;;;;;16.99;67.38;100352.44;4921156;28;119952;-74
2022/11/08 05:07:34;;;;;;;21.50;5.83;;;;;;;16.99;67.08;100360.75;4918223;28;120244;-74
2022/11/08 05:10:06;;;;;;;19.87;5.30;;;;;;;16.99;67.54;100354.44;4919686;28;119666;-74
2022/11/08 05:12:31;;;;;;;18.55;5.43;;;;;;;16.97;67.47;100363.25;4909203;28;120159;-74
2022/11/08 05:14:57;;;;;;;19.80;5.50;;;;;;;16.95;67.36;100348.41;4907552;28;120070;-74
2022/11/08 05:17:23;;;;;;;19.95;5.65;;;;;;;16.95;67.34;100348.41;4923492;28;120417;-75
2022/11/08 05:25:17;;;;;;;21.38;5.43;;;;;;;16.82;67.43;100346.13;4923955;28;120117;-76
2022/11/08 05:27:42;;;;;;;19.92;5.18;;;;;;;16.82;67.20;100341.34;4932250;28;120549;-74
2022/11/08 05:30:08;;;;;;;19.38;5.43;;;;;;;16.80;66.98;100345.88;4945851;28;120451;-74
2022/11/08 05:32:34;;;;;;;16.15;5.43;;;;;;;16.76;67.06;100348.13;4943979;28;119660;-74
2022/11/08 05:35:00;;;;;;;20.13;5.65;;;;;;;16.74;66.80;100345.09;4944187;28;121465;-74
2022/11/08 05:37:25;;;;;;;19.42;5.97;;;;;;;16.67;67.17;100340.06;4945196;28;119943;-74
2022/11/08 05:39:51;;;;;;;19.20;6.00;;;;;;;16.63;67.12;100345.81;4946818;28;120946;-74
2022/11/08 05:42:17;;;;;;;21.15;6.43;;;;;;;16.52;67.32;100329.91;4944755;28;120198;-73
2022/11/08 05:44:42;;;;;;;22.35;6.82;;;;;;;16.52;67.65;100332.69;4950585;28;119733;-74
2022/11/08 05:47:08;;;;;;;21.08;6.63;;;;;;;16.48;68.10;100325.88;4943188;28;119841;-74
2022/11/08 05:49:34;;;;;;;20.60;6.40;;;;;;;16.46;67.87;100331.91;4945576;28;120119;-73
2022/11/08 05:51:59;;;;;;;21.60;6.63;;;;;;;16.45;67.84;100326.88;4943475;28;120797;-74
2022/11/08 05:54:25;;;;;;;18.45;6.20;;;;;;;16.43;67.81;100326.63;4943616;28;120062;-74
2022/11/08 05:56:51;;;;;;;20.45;6.30;;;;;;;16.40;67.75;100328.38;4946263;28;120356;-73
2022/11/08 05:59:16;;;;;;;19.92;6.63;;;;;;;16.40;67.86;100328.38;4943045;28;121896;-74
2022/11/08 06:01:42;;;;;;;22.30;6.60;;;;;;;16.38;67.99;100330.91;4942870;28;119955;-74
2022/11/08 06:04:08;;;;;;;21.75;7.07;;;;;;;16.37;68.03;100323.84;4949831;28;119913;-74
2022/11/08 06:06:34;;;;;;;22.58;7.40;;;;;;;16.37;68.16;100325.84;4945391;28;120370;-75
2022/11/08 06:08:59;;;;;;;20.65;6.70;;;;;;;16.36;68.09;100319.56;4946264;28;119962;-74
2022/11/08 06:11:34;;;;;;;23.02;6.95;;;;;;;16.32;68.01;100319.03;4944593;28;119555;-74
2022/11/08 06:14:00;;;;;;;18.30;6.60;;;;;;;16.32;68.08;100321.03;4945844;28;120232;-74
2022/11/08 06:16:25;;;;;;;21.23;6.82;;;;;;;16.34;68.03;100324.09;4944020;28;119634;-74
2022/11/08 06:18:51;;;;;;;18.88;6.90;;;;;;;16.32;67.81;100321.03;4943687;28;120014;-73
2022/11/08 06:21:19;;;;;;;20.63;7.13;;;;;;;16.31;68.04;100305.69;4944155;28;119973;-75
2022/11/08 06:23:45;;;;;;;19.97;7.00;;;;;;;16.31;68.12;100314.75;4946761;28;120542;-75
2022/11/08 06:26:11;;;;;;;22.30;7.00;;;;;;;16.30;68.08;100318.03;4946185;28;120388;-74
2022/11/08 06:28:36;;;;;;;26.30;7.70;;;;;;;16.31;68.02;100308.47;4941217;28;120863;-74
2022/11/08 06:31:03;;;;;;;22.65;7.57;;;;;;;16.24;68.09;100304.16;4943957;28;120697;-74
2022/11/08 06:33:50;;;;;;;18.52;6.80;;;;;;;16.24;67.74;100318.75;4944840;28;119693;-74
2022/11/08 06:36:39;;;;;;;19.50;7.63;;;;;;;16.22;67.79;100312.97;4943134;28;120475;-74
2022/11/08 06:39:05;;;;;;;18.20;7.32;;;;;;;16.20;67.92;100318.25;4944547;28;120336;-74
2022/11/08 06:41:31;;;;;;;20.02;7.18;;;;;;;16.17;68.10;100316.47;4942942;28;120342;-73
2022/11/08 06:43:57;;;;;;;22.65;7.88;;;;;;;16.13;68.20;100309.69;4959823;28;119959;-74
2022/11/08 06:46:23;;;;;;;25.05;7.90;;;;;;;16.14;68.14;100309.19;4945433;28;120725;-74
2022/11/08 06:48:50;;;;;;;20.42;8.02;;;;;;;16.14;68.51;100311.19;4946111;28;120234;-74
2022/11/08 06:51:20;;;;;;;19.15;7.50;;;;;;;16.15;67.80;100312.69;4945423;28;120237;-73
2022/11/08 06:53:46;;;;;;;19.70;7.38;;;;;;;16.15;68.00;100321.75;4957008;28;122587;-74
2022/11/08 06:56:12;;;;;;;23.40;7.50;;;;;;;16.14;67.87;100316.72;4944778;28;120054;-74
2022/11/08 06:58:40;;;;;;;19.87;7.47;;;;;;;16.12;68.20;100322.75;4945553;28;119686;-74
2022/11/08 07:01:09;;;;;;;20.48;7.57;;;;;;;16.14;67.58;100328.53;4944421;28;120261;-75
2022/11/08 07:03:35;;;;;;;22.80;7.85;;;;;;;16.13;67.84;100323.50;4942218;28;119861;-74
2022/11/08 07:06:05;;;;;;;21.00;7.60;;;;;;;16.10;67.91;100321.75;4945235;28;119585;-75
2022/11/08 07:08:32;;;;;;;22.40;7.87;;;;;;;16.07;67.71;100317.19;4942121;28;120243;-74
2022/11/08 07:10:58;;;;;;;22.07;8.23;;;;;;;16.05;67.87;100316.91;4946456;28;120554;-74
2022/11/08 07:13:24;;;;;;;22.60;8.10;;;;;;;16.01;67.71;100316.41;4943924;28;119703;-75
2022/11/08 07:15:50;;;;;;;22.98;8.20;;;;;;;15.96;67.74;100315.91;4944297;28;119867;-75
2022/11/08 07:18:18;;;;;;;22.52;8.50;;;;;;;15.94;68.09;100314.88;4943848;28;119854;-74
2022/11/08 07:20:44;;;;;;;24.80;8.53;;;;;;;15.95;67.70;100319.91;4942341;28;120239;-73
2022/11/08 07:23:10;;;;;;;20.65;8.77;;;;;;;15.90;67.98;100312.34;4943267;28;119916;-75
2022/11/08 07:25:37;;;;;;;22.17;8.43;;;;;;;15.90;68.16;100320.66;4944223;28;119970;-74
2022/11/08 07:28:05;;;;;;;21.37;8.67;;;;;;;15.86;68.28;100311.84;4940686;28;120261;-74
2022/11/08 07:30:32;;;;;;;26.75;9.20;;;;;;;15.83;68.10;100315.56;4942442;28;120051;-74
2022/11/08 07:32:58;;;;;;;26.67;9.18;;;;;;;15.82;68.18;100313.28;4942711;28;119719;-74
2022/11/08 07:35:26;;;;;;;21.77;9.15;;;;;;;15.83;68.29;100306.50;4941670;28;119693;-74
2022/11/08 07:37:52;;;;;;;24.13;9.40;;;;;;;15.80;68.14;100311.03;4942073;28;120074;-74
2022/11/08 07:40:18;;;;;;;24.13;10.10;;;;;;;15.80;68.08;100316.56;4944491;28;120525;-75
2022/11/08 07:43:06;;;;;;;26.25;9.60;;;;;;;15.75;68.44;100309.00;4942511;28;119945;-74
2022/11/08 07:45:31;;;;;;;25.63;9.40;;;;;;;15.72;68.48;100309.22;4933512;28;119560;-75
2022/11/08 07:47:59;;;;;;;22.52;9.00;;;;;;;15.73;67.88;100311.50;4933479;28;119978;-73
2022/11/08 07:50:25;;;;;;;27.05;9.90;;;;;;;15.73;68.44;100317.03;4933203;28;120202;-73
2022/11/08 07:52:51;;;;;;;23.30;9.70;;;;;;;15.73;68.17;100311.50;4933435;28;120503;-75
2022/11/08 07:55:16;;;;;;;23.10;9.20;;;;;;;15.71;68.55;100304.97;4955432;28;123089;-74
2022/11/08 07:57:42;;;;;;;23.20;9.30;;;;;;;15.74;68.84;100320.56;4937953;28;119946;-74
2022/11/08 08:00:09;;;;;;;20.23;8.90;;;;;;;15.77;68.67;100317.56;4918348;28;121125;-74
2022/11/08 08:02:37;;;;;;;23.40;8.88;;;;;;;15.78;68.17;100310.78;4939612;28;120035;-74
2022/11/08 08:05:03;;;;;;;23.53;9.03;;;;;;;15.83;68.14;100321.09;4943335;28;119719;-73
2022/11/08 08:07:29;;;;;;;24.40;8.97;;;;;;;15.86;67.75;100327.66;4940710;28;120163;-74
2022/11/08 08:09:55;;;;;;;21.48;8.90;;;;;;;15.88;67.86;100331.44;4944739;28;120111;-74
2022/11/08 08:12:50;;;;;;;21.38;8.52;;;;;;;15.86;67.82;100316.59;4944623;28;119806;-73
2022/11/08 08:15:16;;;;;;;18.67;7.93;;;;;;;15.85;67.82;100313.09;4926193;28;119645;-74
2022/11/08 08:17:41;;;;;;;20.73;8.82;;;;;;;15.84;67.79;100308.03;4940970;28;119943;-73
2022/11/08 08:20:07;;;;;;;21.33;8.60;;;;;;;15.80;67.48;100310.28;4943614;28;120052;-75
2022/11/08 08:22:33;;;;;;;19.20;8.23;;;;;;;15.81;67.57;100306.25;4942653;28;119947;-75
2022/11/08 08:24:59;;;;;;;20.52;8.45;;;;;;;15.83;68.09;100309.28;4942039;28;120386;-73
2022/11/08 08:27:24;;;;;;;20.58;8.52;;;;;;;15.86;67.95;100302.78;4941031;28;121407;-74
2022/11/08 08:29:50;;;;;;;21.83;8.50;;;;;;;15.88;68.43;100312.09;4943022;28;119917;-74
2022/11/08 08:32:16;;;;;;;22.20;8.95;;;;;;;15.95;68.22;100300.56;4942453;28;120283;-74
2022/11/08 08:34:42;;;;;;;18.63;8.50;;;;;;;16.05;68.06;100303.09;4941234;28;119843;-75
2022/11/08 08:37:08;;;;;;;17.48;8.23;;;;;;;16.10;67.66;100305.91;4942345;28;121838;-74
2022/11/08 08:39:57;;;;;;;20.08;8.30;;;;;;;16.16;67.55;100303.16;4923917;28;119788;-74
2022/11/08 08:42:25;;;;;;;21.85;8.27;;;;;;;16.18;67.63;100306.94;4942556;28;120151;-73
2022/11/08 08:44:51;;;;;;;21.50;8.00;;;;;;;16.22;67.15;100312.22;4940953;28;119474;-74
2022/11/08 08:47:17;;;;;;;22.33;8.90;;;;;;;16.25;67.39;100305.69;4941179;28;122800;-74
2022/11/08 08:49:42;;;;;;;20.03;7.90;;;;;;;16.28;67.13;100299.16;4943995;28;119665;-74
2022/11/08 08:52:08;;;;;;;18.33;7.43;;;;;;;16.27;66.96;100292.84;4943011;28;119988;-75
2022/11/08 08:54:34;;;;;;;19.17;7.77;;;;;;;16.28;66.97;100296.38;4942575;28;119960;-74
2022/11/08 08:56:59;;;;;;;18.63;7.25;;;;;;;16.28;66.93;100288.84;4938702;28;120089;-74
2022/11/08 08:59:27;;;;;;;20.90;7.65;;;;;;;16.26;66.72;100280.28;4946042;28;119965;-74
2022/11/08 09:01:52;;;;;;;16.40;7.43;;;;;;;16.26;66.69;100274.00;4925340;28;119494;-74
2022/11/08 09:04:18;;;;;;;17.67;7.47;;;;;;;16.26;66.55;100274.00;4945590;28;119799;-74
2022/11/08 09:06:50;;;;;;;15.13;7.33;;;;;;;16.27;66.96;100272.72;4934578;28;119811;-74
2022/11/08 09:09:15;;;;;;;17.87;7.43;;;;;;;16.28;67.06;100265.94;4949672;28;120871;-74
2022/11/08 09:11:41;;;;;;;19.83;7.60;;;;;;;16.36;67.16;100258.69;4944502;28;120562;-73
2022/11/08 09:14:07;;;;;;;19.23;7.43;;;;;;;16.44;67.41;100268.00;4939900;28;122477;-74
2022/11/08 09:16:32;;;;;;;15.23;6.40;;;;;;;16.42;67.04;100242.81;4928625;28;120263;-74
2022/11/08 09:18:58;;;;;;;16.33;6.50;;;;;;;16.61;66.74;100256.19;4944172;28;119397;-74
2022/11/08 09:21:24;;;;;;;14.73;6.17;;;;;;;16.74;67.01;100250.94;4945537;28;119871;-74
2022/11/08 09:23:49;;;;;;;14.60;5.87;;;;;;;16.85;66.59;100246.16;4941946;28;121220;-73
2022/11/08 09:26:15;;;;;;;18.23;6.03;;;;;;;16.93;66.38;100245.66;4941113;28;119960;-73
2022/11/08 09:28:41;;;;;;;14.73;5.40;;;;;;;17.01;65.97;100243.88;4942647;28;120366;-73
2022/11/08 09:31:09;;;;;;;13.87;5.13;;;;;;;17.09;65.58;100242.88;4943058;28;120418;-74
2022/11/08 09:33:36;;;;;;;13.25;5.45;;;;;;;17.10;65.10;100240.84;4943420;28;120065;-73
2022/11/08 09:36:02;;;;;;;13.98;5.05;;;;;;;17.09;64.40;100242.88;4927454;28;119660;-74
2022/11/08 09:38:29;;;;;;;12.75;4.90;;;;;;;17.09;64.77;100248.41;4945037;28;120877;-73
2022/11/08 09:41:35;;;;;;;13.60;4.70;;;;;;;17.09;64.37;100242.13;4944628;28;120221;-74
2022/11/08 09:44:47;;;;;;;13.63;4.57;;;;;;;17.09;64.49;100233.81;4918996;28;120156;-74
2022/11/08 09:47:19;;;;;;;10.90;4.45;;;;;;;17.12;64.48;100235.56;4941384;28;119715;-74
2022/11/08 09:50:01;;;;;;;14.27;4.50;;;;;;;17.12;64.36;100236.31;4944564;28;119919;-74
2022/11/08 09:52:30;;;;;;;15.23;4.75;;;;;;;17.13;64.14;100237.81;4956046;28;119910;-74
2022/11/08 09:55:14;;;;;;;12.20;4.38;;;;;;;17.13;63.93;100220.44;4923794;28;121922;-73
2022/11/08 09:58:24;;;;;;;11.47;4.60;;;;;;;17.11;64.21;100223.72;4936588;28;120533;-74
2022/11/08 10:00:52;;;;;;;13.95;4.43;;;;;;;17.12;63.65;100225.22;4930600;28;119995;-74
2022/11/08 10:03:36;;;;;;;15.18;4.20;;;;;;;17.14;63.93;100219.19;4926790;28;120211;-75
2022/11/08 10:06:30;;;;;;;13.00;4.10;;;;;;;17.17;63.77;100220.94;4943211;28;120091;-74
2022/11/08 10:09:05;;;;;;;10.37;3.77;;;;;;;17.22;63.89;100211.09;4936871;28;120106;-73
2022/11/08 10:11:41;;;;;;;10.40;3.63;;;;;;;17.24;63.46;100209.31;4945755;28;119990;-73
2022/11/08 10:14:12;;;;;;;14.52;4.00;;;;;;;17.30;63.69;100214.88;4951645;28;120039;-74
2022/11/08 10:17:21;;;;;;;11.17;3.93;;;;;;;17.35;63.48;100214.09;4944173;28;119703;-74
2022/11/08 10:19:49;;;;;;;10.73;3.30;;;;;;;17.38;62.97;100202.72;4942710;28;119961;-73
2022/11/08 10:22:30;;;;;;;11.77;3.43;;;;;;;17.42;63.12;100194.91;4940608;28;120931;-74
2022/11/08 10:25:00;;;;;;;11.52;3.50;;;;;;;17.49;63.25;100188.06;4938222;28;120156;-73
2022/11/08 10:27:28;;;;;;;9.30;3.20;;;;;;;17.57;62.89;100185.53;4945934;28;119467;-74
2022/11/08 10:30:00;;;;;;;10.23;3.42;;;;;;;17.57;62.28;100186.28;4945868;28;119804;-74
2022/11/08 10:32:29;;;;;;;9.03;3.33;;;;;;;17.61;62.33;100184.00;4945882;28;120209;-74
2022/11/08 10:35:09;;;;;;;10.82;3.30;;;;;;;17.66;62.67;100180.44;4939672;28;120157;-74
2022/11/08 10:37:35;;;;;;;11.27;3.30;;;;;;;17.70;63.14;100172.63;4940606;28;120421;-73
2022/11/08 10:40:20;;;;;;;9.35;3.20;;;;;;;17.73;63.34;100171.59;4942964;28;119941;-74
2022/11/08 10:42:59;;;;;;;9.07;3.28;;;;;;;17.83;61.34;100174.09;4927030;28;119805;-74
2022/11/08 10:45:25;;;;;;;8.97;2.83;;;;;;;17.86;61.57;100165.50;4941280;28;119675;-73
2022/11/08 10:47:53;;;;;;;10.27;2.80;;;;;;;17.90;60.50;100162.44;4924979;28;120332;-74
2022/11/08 10:50:28;;;;;;;7.77;2.70;;;;;;;17.93;60.60;100158.63;4942448;28;120010;-73
2022/11/08 10:52:58;;;;;;;9.07;2.85;;;;;;;17.96;61.20;100154.84;4947716;28;120417;-74
2022/11/08 10:55:32;;;;;;;8.57;2.53;;;;;;;17.97;60.07;100162.63;4958405;28;120119;-73
2022/11/08 10:57:59;;;;;;;9.20;2.83;;;;;;;18.03;59.85;100143.19;4942627;28;119958;-74
2022/11/08 11:00:30;;;;;;;9.15;2.70;;;;;;;18.06;59.80;100133.84;4942898;28;120244;-73
2022/11/08 11:03:09;;;;;;;8.00;2.80;;;;;;;18.13;59.95;100138.06;4942602;28;120234;-74
2022/11/08 11:05:37;;;;;;;9.45;2.78;;;;;;;18.15;59.54;100127.97;4942019;28;121250;-74
2022/11/08 11:08:09;;;;;;;7.03;2.50;;;;;;;18.14;58.62;100126.47;4941732;28;120686;-73
2022/11/08 11:10:42;;;;;;;8.30;2.80;;;;;;;18.12;58.96;100115.13;4942870;28;120531;-74
2022/11/08 11:13:20;;;;;;;8.75;2.60;;;;;;;18.15;59.52;100121.66;4942920;28;119902;-74
2022/11/08 11:15:56;;;;;;;8.10;2.47;;;;;;;18.14;58.61;100117.38;4947690;28;119540;-74
2022/11/08 11:18:38;;;;;;;7.78;2.58;;;;;;;18.15;58.30;100102.97;4944511;28;119877;-74
2022/11/08 11:21:08;;;;;;;7.50;2.73;;;;;;;18.16;58.79;100101.72;4944320;28;119732;-73
2022/11/08 11:23:41;;;;;;;9.02;2.58;;;;;;;18.21;58.78;100103.69;4943395;28;120004;-74
2022/11/08 11:26:15;;;;;;;9.68;2.72;;;;;;;18.22;58.40;100108.00;4943275;28;120500;-74
2022/11/08 11:29:13;;;;;;;7.07;2.38;;;;;;;18.23;58.11;100101.16;4944868;28;120026;-74
2022/11/08 11:31:42;;;;;;;7.23;2.33;;;;;;;18.25;58.42;100092.31;4927246;28;120259;-73
2022/11/08 11:34:16;;;;;;;9.70;2.30;;;;;;;18.29;57.93;100095.56;4955228;28;120396;-74
2022/11/08 11:37:04;;;;;;;9.43;2.43;;;;;;;18.33;57.95;100101.59;4943006;28;119670;-73
2022/11/08 11:39:50;;;;;;;7.78;2.53;;;;;;;18.34;58.12;100089.97;4948312;28;120093;-74
2022/11/08 11:42:34;;;;;;;6.78;2.30;;;;;;;18.36;58.58;100092.97;4944137;28;119861;-74
2022/11/08 11:45:22;;;;;;;10.13;2.75;;;;;;;18.35;57.96;100085.91;4944448;28;119688;-74